Time;durP1;ratioP1;P1;durP2;ratioP2;P2;SDS_P1;SDS_P2;PMS_P1;PMS_P2;Temp;Humidity;BMP_temperature;BMP_pressure;BME280_temperature;BME280_humidity;BME280_pressure;Samples;Min_cycle;Max_cycle;Signal;HPM_P1;HPM_P2
2023/12/14 00:00:19;;;;;;;20.17;8.60;;;;;;;;;;5046037;28;20079;-65
2023/12/14 00:02:44;;;;;;;18.88;7.97;;;;;;;;;;5046036;28;20459;-65
2023/12/14 00:05:09;;;;;;;14.98;7.30;;;;;;;;;;5048893;28;20033;-65
2023/12/14 00:07:35;;;;;;;14.45;6.40;;;;;;;;;;5047906;28;20032;-65
2023/12/14 00:10:00;;;;;;;14.77;7.18;;;;;;;;;;5040938;28;20123;-65
2023/12/14 00:12:26;;;;;;;15.18;7.07;;;;;;;;;;5026954;28;20029;-65
2023/12/14 00:14:51;;;;;;;14.18;7.07;;;;;;;;;;5032869;28;20474;-63
2023/12/14 00:17:16;;;;;;;14.25;6.97;;;;;;;;;;5026681;28;20048;-65
2023/12/14 00:19:42;;;;;;;12.40;6.72;;;;;;;;;;5032179;28;20049;-65
2023/12/14 00:22:08;;;;;;;14.63;6.97;;;;;;;;;;5044307;28;20124;-65
2023/12/14 00:24:33;;;;;;;13.80;7.30;;;;;;;;;;5049819;28;20430;-65
2023/12/14 00:26:58;;;;;;;15.18;7.25;;;;;;;;;;5042370;28;20468;-65
2023/12/14 00:29:24;;;;;;;13.20;7.18;;;;;;;;;;5033796;28;20047;-65
2023/12/14 00:31:49;;;;;;;13.85;7.28;;;;;;;;;;5048407;28;20090;-65
2023/12/14 00:34:15;;;;;;;14.07;7.40;;;;;;;;;;5045850;28;20028;-65
2023/12/14 00:36:40;;;;;;;14.55;7.82;;;;;;;;;;5039852;28;20464;-65
2023/12/14 00:39:05;;;;;;;14.65;7.80;;;;;;;;;;5044588;28;20041;-65
2023/12/14 00:41:31;;;;;;;12.85;6.93;;;;;;;;;;5047051;28;20079;-65
2023/12/14 00:43:56;;;;;;;14.63;7.35;;;;;;;;;;5039052;28;20040;-62
2023/12/14 00:46:21;;;;;;;13.98;7.30;;;;;;;;;;5044401;28;20034;-64
2023/12/14 00:48:47;;;;;;;14.30;7.70;;;;;;;;;;5044516;28;20036;-64
2023/12/14 00:51:12;;;;;;;12.55;7.03;;;;;;;;;;5036175;28;20315;-64
2023/12/14 00:53:37;;;;;;;14.75;7.80;;;;;;;;;;5053333;28;20152;-64
2023/12/14 00:56:03;;;;;;;13.55;7.05;;;;;;;;;;5048533;28;20486;-63
2023/12/14 00:58:28;;;;;;;14.45;7.93;;;;;;;;;;5051917;28;20468;-63
2023/12/14 01:00:54;;;;;;;16.48;7.05;;;;;;;;;;5053180;28;20025;-62
2023/12/14 01:03:20;;;;;;;13.90;7.22;;;;;;;;;;5050555;28;20116;-63
2023/12/14 01:05:46;;;;;;;13.30;7.47;;;;;;;;;;5052052;28;20029;-64
2023/12/14 01:08:11;;;;;;;13.48;7.40;;;;;;;;;;5033908;28;20665;-65
2023/12/14 01:10:36;;;;;;;15.48;7.75;;;;;;;;;;5045003;28;20536;-64
2023/12/14 01:13:02;;;;;;;15.68;7.88;;;;;;;;;;5017125;28;20048;-62
2023/12/14 01:15:27;;;;;;;18.80;8.45;;;;;;;;;;5051722;28;20083;-65
2023/12/14 01:17:53;;;;;;;17.35;8.40;;;;;;;;;;5033107;28;20061;-62
2023/12/14 01:20:18;;;;;;;17.95;9.07;;;;;;;;;;5045219;28;20111;-63
2023/12/14 01:22:43;;;;;;;16.42;8.32;;;;;;;;;;5048437;28;20033;-64
2023/12/14 01:25:09;;;;;;;20.10;9.18;;;;;;;;;;5049530;28;20052;-65
2023/12/14 01:27:34;;;;;;;19.98;10.13;;;;;;;;;;5050950;28;20068;-65
2023/12/14 01:30:00;;;;;;;19.70;10.18;;;;;;;;;;5051292;28;20124;-62
2023/12/14 01:32:25;;;;;;;21.77;10.55;;;;;;;;;;5051451;28;20037;-63
2023/12/14 01:34:50;;;;;;;22.02;10.45;;;;;;;;;;5050464;28;20433;-62
2023/12/14 01:37:16;;;;;;;22.00;10.68;;;;;;;;;;5035606;28;20128;-65
2023/12/14 01:39:41;;;;;;;21.55;10.68;;;;;;;;;;5040954;28;20536;-65
2023/12/14 01:42:07;;;;;;;22.77;10.45;;;;;;;;;;5050327;28;20029;-65
2023/12/14 01:44:32;;;;;;;24.58;11.15;;;;;;;;;;5051782;28;20032;-65
2023/12/14 01:46:57;;;;;;;24.13;11.25;;;;;;;;;;5042537;28;20446;-61
2023/12/14 01:49:23;;;;;;;22.67;11.82;;;;;;;;;;5047025;28;20041;-64
2023/12/14 01:51:48;;;;;;;23.35;11.77;;;;;;;;;;5045977;28;20112;-65
2023/12/14 01:54:13;;;;;;;26.13;12.43;;;;;;;;;;5044333;28;20464;-63
2023/12/14 01:56:40;;;;;;;25.45;11.50;;;;;;;;;;5050810;28;20171;-64
2023/12/14 01:59:05;;;;;;;22.17;10.32;;;;;;;;;;5046925;28;20040;-63
2023/12/14 02:01:44;;;;;;;19.52;10.00;;;;;;;;;;5049060;28;20037;-63
2023/12/14 02:04:11;;;;;;;21.73;9.80;;;;;;;;;;5024841;28;20041;-63
2023/12/14 02:06:37;;;;;;;23.17;10.40;;;;;;;;;;5031931;28;20172;-64
2023/12/14 02:09:03;;;;;;;22.20;10.15;;;;;;;;;;5031578;28;20112;-63
2023/12/14 02:11:28;;;;;;;21.55;10.30;;;;;;;;;;5037435;28;20030;-63
2023/12/14 02:13:53;;;;;;;24.67;10.98;;;;;;;;;;5043298;28;20113;-64
2023/12/14 02:16:19;;;;;;;23.58;11.55;;;;;;;;;;5049939;28;20471;-63
2023/12/14 02:18:45;;;;;;;24.83;11.45;;;;;;;;;;5037717;28;20030;-63
2023/12/14 02:21:10;;;;;;;24.40;11.23;;;;;;;;;;5044484;28;20044;-62
2023/12/14 02:23:43;;;;;;;24.13;10.57;;;;;;;;;;5034477;28;20052;-62
2023/12/14 02:26:08;;;;;;;22.27;10.77;;;;;;;;;;5050487;28;20028;-62
2023/12/14 02:28:34;;;;;;;24.42;11.48;;;;;;;;;;5051471;28;20128;-63
2023/12/14 02:30:59;;;;;;;24.23;10.80;;;;;;;;;;5047667;28;20041;-61
2023/12/14 02:33:24;;;;;;;28.17;11.90;;;;;;;;;;5045063;28;20140;-62
2023/12/14 02:35:50;;;;;;;30.60;12.18;;;;;;;;;;5052623;28;20041;-63
2023/12/14 02:38:16;;;;;;;29.40;12.52;;;;;;;;;;5048430;28;20119;-64
2023/12/14 02:40:41;;;;;;;28.88;12.68;;;;;;;;;;5049918;28;20036;-64
2023/12/14 02:43:06;;;;;;;26.48;12.68;;;;;;;;;;5046338;28;20459;-62
2023/12/14 02:45:32;;;;;;;26.20;11.65;;;;;;;;;;5031077;28;20037;-62
2023/12/14 02:47:57;;;;;;;27.42;11.45;;;;;;;;;;5043303;28;20029;-62
2023/12/14 02:50:22;;;;;;;27.55;11.68;;;;;;;;;;5047015;28;20569;-62
2023/12/14 02:52:48;;;;;;;26.42;10.73;;;;;;;;;;5047808;28;20091;-62
2023/12/14 02:55:13;;;;;;;26.50;11.35;;;;;;;;;;5047679;28;20075;-65
2023/12/14 02:57:39;;;;;;;28.02;11.65;;;;;;;;;;5032399;28;20037;-65
2023/12/14 03:00:05;;;;;;;26.50;10.82;;;;;;;;;;5026481;28;20127;-62
2023/12/14 03:02:30;;;;;;;26.85;11.70;;;;;;;;;;5036450;28;20480;-64
2023/12/14 03:04:56;;;;;;;26.42;11.45;;;;;;;;;;5046612;28;20051;-62
2023/12/14 03:07:21;;;;;;;25.85;11.82;;;;;;;;;;5049260;28;20083;-64
2023/12/14 03:09:46;;;;;;;23.75;11.07;;;;;;;;;;5051037;28;20033;-62
2023/12/14 03:12:12;;;;;;;26.85;11.77;;;;;;;;;;5029562;28;20061;-64
2023/12/14 03:14:37;;;;;;;26.42;11.48;;;;;;;;;;5050061;28;20056;-64
2023/12/14 03:17:03;;;;;;;25.25;10.73;;;;;;;;;;5051680;28;20055;-62
2023/12/14 03:19:28;;;;;;;27.27;11.35;;;;;;;;;;5045429;28;20061;-62
2023/12/14 03:21:54;;;;;;;29.92;12.68;;;;;;;;;;5041910;28;20353;-64
2023/12/14 03:24:20;;;;;;;27.52;11.20;;;;;;;;;;5049859;28;20029;-64
2023/12/14 03:26:45;;;;;;;23.80;11.30;;;;;;;;;;5050778;28;20036;-63
2023/12/14 03:29:10;;;;;;;27.98;11.88;;;;;;;;;;5030267;28;20113;-64
2023/12/14 03:31:36;;;;;;;27.90;11.77;;;;;;;;;;5041680;28;20031;-64
2023/12/14 03:34:02;;;;;;;25.40;11.35;;;;;;;;;;5051866;28;20031;-64
2023/12/14 03:36:28;;;;;;;27.70;11.80;;;;;;;;;;5038788;28;20089;-64
2023/12/14 03:38:53;;;;;;;24.75;11.40;;;;;;;;;;5036007;28;20057;-64
2023/12/14 03:41:19;;;;;;;32.20;13.02;;;;;;;;;;5032910;28;20075;-65
2023/12/14 03:43:44;;;;;;;27.75;12.52;;;;;;;;;;5051435;28;20044;-64
2023/12/14 03:46:10;;;;;;;26.27;11.45;;;;;;;;;;5047896;28;21416;-64
2023/12/14 03:48:35;;;;;;;28.77;11.02;;;;;;;;;;5034938;28;20029;-65
2023/12/14 03:51:04;;;;;;;29.90;11.75;;;;;;;;;;5048820;28;20446;-65
2023/12/14 03:53:30;;;;;;;27.73;11.45;;;;;;;;;;5047804;28;20032;-64
2023/12/14 03:55:58;;;;;;;26.38;11.27;;;;;;;;;;5037612;28;20033;-63
2023/12/14 03:58:24;;;;;;;24.20;10.52;;;;;;;;;;5033948;28;20139;-63
2023/12/14 04:00:49;;;;;;;25.45;10.98;;;;;;;;;;5051132;28;20447;-64
2023/12/14 04:03:14;;;;;;;22.92;10.15;;;;;;;;;;5043994;28;20033;-64
2023/12/14 04:05:40;;;;;;;24.55;10.77;;;;;;;;;;5031399;28;20037;-64
2023/12/14 04:08:05;;;;;;;25.10;9.82;;;;;;;;;;5044755;28;20041;-61
2023/12/14 04:10:30;;;;;;;23.90;9.98;;;;;;;;;;5049596;28;20039;-64
2023/12/14 04:12:56;;;;;;;22.00;9.65;;;;;;;;;;5051331;28;20025;-62
2023/12/14 04:15:22;;;;;;;21.98;9.05;;;;;;;;;;5045413;28;20036;-63
2023/12/14 04:17:47;;;;;;;23.45;8.90;;;;;;;;;;5044771;28;20040;-63
2023/12/14 04:20:15;;;;;;;24.45;8.88;;;;;;;;;;5049428;28;20445;-63
2023/12/14 04:22:41;;;;;;;25.48;9.02;;;;;;;;;;5048107;28;20132;-63
2023/12/14 04:25:06;;;;;;;21.48;8.70;;;;;;;;;;5051928;28;20112;-63
2023/12/14 04:27:32;;;;;;;19.17;8.60;;;;;;;;;;5051474;28;20037;-64
2023/12/14 04:29:57;;;;;;;21.92;9.27;;;;;;;;;;5053686;28;20033;-63
2023/12/14 04:32:22;;;;;;;21.70;9.90;;;;;;;;;;5054360;28;20102;-64
2023/12/14 04:34:48;;;;;;;20.13;8.93;;;;;;;;;;5040147;28;20036;-64
2023/12/14 04:37:13;;;;;;;20.17;9.38;;;;;;;;;;5054126;28;20029;-62
2023/12/14 04:39:38;;;;;;;22.77;8.88;;;;;;;;;;5051363;28;20036;-63
2023/12/14 04:42:04;;;;;;;19.00;8.90;;;;;;;;;;5053642;28;20040;-63
2023/12/14 04:44:29;;;;;;;20.05;9.43;;;;;;;;;;5049742;28;20024;-63
2023/12/14 04:46:55;;;;;;;21.15;9.50;;;;;;;;;;5038375;28;20033;-63
2023/12/14 04:49:20;;;;;;;22.48;9.80;;;;;;;;;;5030008;28;20120;-67
2023/12/14 04:51:45;;;;;;;19.42;8.82;;;;;;;;;;5047378;28;20034;-64
2023/12/14 04:54:11;;;;;;;21.88;9.57;;;;;;;;;;5050468;28;20095;-61
2023/12/14 04:56:36;;;;;;;20.00;9.93;;;;;;;;;;5050196;28;20025;-63
2023/12/14 04:59:02;;;;;;;20.05;9.07;;;;;;;;;;5050766;28;20040;-64
2023/12/14 05:01:28;;;;;;;19.08;9.70;;;;;;;;;;5039866;28;20875;-64
2023/12/14 05:03:53;;;;;;;21.83;9.82;;;;;;;;;;5034356;28;20036;-63
2023/12/14 05:06:19;;;;;;;23.10;10.30;;;;;;;;;;5041611;28;20503;-63
2023/12/14 05:08:45;;;;;;;25.15;10.63;;;;;;;;;;5039748;28;20529;-63
2023/12/14 05:11:12;;;;;;;28.23;10.95;;;;;;;;;;5049968;28;20053;-62
2023/12/14 05:13:37;;;;;;;27.15;11.00;;;;;;;;;;5052666;28;20037;-64
2023/12/14 05:16:03;;;;;;;25.50;11.63;;;;;;;;;;5054581;28;20031;-65
2023/12/14 05:18:28;;;;;;;31.48;12.45;;;;;;;;;;5046957;28;20025;-63
2023/12/14 05:20:54;;;;;;;29.05;12.65;;;;;;;;;;5042929;28;20118;-63
2023/12/14 05:23:19;;;;;;;26.83;11.38;;;;;;;;;;5033429;28;20116;-65
2023/12/14 05:25:45;;;;;;;27.67;12.32;;;;;;;;;;5026386;28;20034;-63
2023/12/14 05:28:10;;;;;;;27.95;12.32;;;;;;;;;;5020611;28;20029;-63
2023/12/14 05:30:35;;;;;;;32.70;12.88;;;;;;;;;;5035053;28;20561;-63
2023/12/14 05:33:01;;;;;;;25.73;12.65;;;;;;;;;;5052859;28;20037;-63
2023/12/14 05:35:27;;;;;;;29.25;12.63;;;;;;;;;;5053401;28;20486;-64
2023/12/14 05:37:52;;;;;;;28.02;12.90;;;;;;;;;;5049166;28;20117;-64
2023/12/14 05:40:17;;;;;;;31.33;11.90;;;;;;;;;;5033622;28;20467;-63
2023/12/14 05:42:43;;;;;;;27.88;12.05;;;;;;;;;;5043639;28;20032;-63
2023/12/14 05:45:09;;;;;;;27.65;12.18;;;;;;;;;;5053778;28;20056;-64
2023/12/14 05:47:34;;;;;;;25.33;11.48;;;;;;;;;;5033068;28;20034;-63
2023/12/14 05:50:01;;;;;;;29.60;13.07;;;;;;;;;;5030436;28;20063;-62
2023/12/14 05:52:26;;;;;;;30.10;11.55;;;;;;;;;;5023619;28;20041;-63
2023/12/14 05:54:52;;;;;;;27.35;12.50;;;;;;;;;;5033940;28;20384;-64
2023/12/14 05:57:17;;;;;;;31.52;13.20;;;;;;;;;;5032731;28;20472;-63
2023/12/14 05:59:43;;;;;;;28.90;12.07;;;;;;;;;;5021959;28;20037;-63
2023/12/14 06:02:08;;;;;;;30.42;13.05;;;;;;;;;;5027465;28;20041;-62
2023/12/14 06:04:34;;;;;;;29.73;12.43;;;;;;;;;;5032521;28;20022;-64
2023/12/14 06:06:59;;;;;;;30.63;13.07;;;;;;;;;;5033900;28;20480;-64
2023/12/14 06:09:33;;;;;;;30.77;12.93;;;;;;;;;;5032672;28;20021;-64
2023/12/14 06:12:01;;;;;;;26.67;11.82;;;;;;;;;;5033910;28;20056;-64
2023/12/14 06:14:27;;;;;;;27.55;11.75;;;;;;;;;;5029882;28;20064;-63
2023/12/14 06:16:52;;;;;;;28.50;12.15;;;;;;;;;;5032090;28;20041;-64
2023/12/14 06:19:17;;;;;;;28.27;11.43;;;;;;;;;;5032426;28;20029;-63
2023/12/14 06:21:43;;;;;;;26.30;11.90;;;;;;;;;;5033465;28;20045;-64
2023/12/14 06:24:08;;;;;;;28.65;12.10;;;;;;;;;;5033152;28;20116;-65
2023/12/14 06:26:33;;;;;;;27.60;11.20;;;;;;;;;;5025864;28;20022;-64
2023/12/14 06:28:59;;;;;;;26.60;12.20;;;;;;;;;;5013363;28;20413;-64
2023/12/14 06:31:24;;;;;;;25.00;11.02;;;;;;;;;;5012624;28;20037;-64
2023/12/14 06:33:50;;;;;;;26.33;10.93;;;;;;;;;;5021770;28;20468;-64
2023/12/14 06:36:18;;;;;;;24.65;11.15;;;;;;;;;;5031946;28;20029;-61
2023/12/14 06:38:44;;;;;;;24.02;10.48;;;;;;;;;;5024757;28;20492;-64
2023/12/14 06:41:23;;;;;;;24.33;10.32;;;;;;;;;;5027726;28;20029;-66
2023/12/14 06:43:49;;;;;;;23.05;11.02;;;;;;;;;;5032042;28;20037;-66
2023/12/14 06:46:14;;;;;;;23.23;11.20;;;;;;;;;;5032014;28;20116;-63
2023/12/14 06:48:40;;;;;;;22.85;10.50;;;;;;;;;;5027941;28;20105;-67
2023/12/14 06:51:06;;;;;;;25.25;11.25;;;;;;;;;;5029952;28;20057;-66
2023/12/14 06:53:31;;;;;;;23.38;10.40;;;;;;;;;;5018617;28;20026;-69
2023/12/14 06:55:56;;;;;;;27.98;10.68;;;;;;;;;;5012724;28;20037;-66
2023/12/14 06:58:22;;;;;;;25.55;10.95;;;;;;;;;;5028638;28;20051;-67
2023/12/14 07:00:47;;;;;;;22.80;10.20;;;;;;;;;;5029314;28;20128;-70
2023/12/14 07:03:13;;;;;;;25.80;10.52;;;;;;;;;;5027692;28;20029;-67
2023/12/14 07:05:39;;;;;;;22.90;10.52;;;;;;;;;;5031073;28;20798;-69
2023/12/14 07:08:05;;;;;;;22.48;10.15;;;;;;;;;;5029668;28;20128;-69
2023/12/14 07:10:30;;;;;;;27.40;10.63;;;;;;;;;;5031017;28;20187;-71
2023/12/14 07:12:56;;;;;;;23.98;10.35;;;;;;;;;;5032081;28;20494;-66
2023/12/14 07:15:21;;;;;;;22.52;9.85;;;;;;;;;;5022759;28;20030;-69
2023/12/14 07:17:47;;;;;;;21.33;10.60;;;;;;;;;;5018251;28;20038;-68
2023/12/14 07:20:12;;;;;;;24.90;9.85;;;;;;;;;;5027007;28;20076;-67
2023/12/14 07:22:38;;;;;;;23.65;10.80;;;;;;;;;;5019868;28;20054;-67
2023/12/14 07:25:04;;;;;;;21.92;10.60;;;;;;;;;;5011818;28;20066;-67
2023/12/14 07:27:29;;;;;;;22.90;10.82;;;;;;;;;;5019443;28;20030;-67
2023/12/14 07:29:55;;;;;;;23.83;10.45;;;;;;;;;;5023400;28;20041;-68
2023/12/14 07:32:21;;;;;;;21.35;10.07;;;;;;;;;;5018198;28;20037;-61
2023/12/14 07:34:46;;;;;;;22.83;9.68;;;;;;;;;;5016686;28;20026;-66
2023/12/14 07:37:12;;;;;;;23.75;10.77;;;;;;;;;;5025746;28;20039;-65
2023/12/14 07:39:37;;;;;;;24.58;10.35;;;;;;;;;;5027684;28;20120;-67
2023/12/14 07:42:03;;;;;;;24.65;10.48;;;;;;;;;;5016018;28;20475;-67
2023/12/14 07:44:29;;;;;;;21.15;9.65;;;;;;;;;;5030459;28;20033;-67
2023/12/14 07:46:56;;;;;;;19.30;10.00;;;;;;;;;;5031540;28;20049;-66
2023/12/14 07:49:23;;;;;;;20.38;9.65;;;;;;;;;;5030434;28;20061;-62
2023/12/14 07:51:49;;;;;;;26.33;9.95;;;;;;;;;;5030046;28;20154;-67
2023/12/14 07:54:14;;;;;;;21.50;10.13;;;;;;;;;;5031635;28;20471;-68
2023/12/14 07:56:42;;;;;;;22.75;10.48;;;;;;;;;;5030414;28;20100;-67
2023/12/14 07:59:09;;;;;;;19.75;10.00;;;;;;;;;;5029154;28;20036;-67
2023/12/14 08:01:34;;;;;;;22.10;10.02;;;;;;;;;;5028412;28;20108;-67
2023/12/14 08:04:00;;;;;;;20.35;10.20;;;;;;;;;;5030834;28;20109;-67
2023/12/14 08:06:25;;;;;;;22.13;10.40;;;;;;;;;;5030160;28;20030;-67
2023/12/14 08:08:51;;;;;;;21.30;10.65;;;;;;;;;;5031029;28;20108;-65
2023/12/14 08:11:16;;;;;;;21.42;9.57;;;;;;;;;;5031510;28;20025;-67
2023/12/14 08:13:42;;;;;;;20.27;10.10;;;;;;;;;;5015573;28;20100;-67
2023/12/14 08:16:08;;;;;;;20.13;10.52;;;;;;;;;;5012468;28;20088;-65
2023/12/14 08:18:33;;;;;;;22.73;10.55;;;;;;;;;;5030342;28;20029;-67
2023/12/14 08:20:59;;;;;;;19.80;10.27;;;;;;;;;;5028286;28;20071;-68
2023/12/14 08:23:27;;;;;;;19.45;10.00;;;;;;;;;;5020525;28;20100;-62
2023/12/14 08:26:02;;;;;;;22.30;10.15;;;;;;;;;;5011124;28;20072;-68
2023/12/14 08:28:28;;;;;;;20.50;10.23;;;;;;;;;;5017915;28;20120;-67
2023/12/14 08:30:53;;;;;;;22.27;11.40;;;;;;;;;;5011228;28;20057;-67
2023/12/14 08:33:19;;;;;;;24.67;11.95;;;;;;;;;;5021605;28;20088;-67
2023/12/14 08:35:44;;;;;;;25.85;11.85;;;;;;;;;;5023716;28;20341;-64
2023/12/14 08:38:10;;;;;;;23.35;11.55;;;;;;;;;;5013693;28;20061;-64
2023/12/14 08:40:36;;;;;;;22.10;11.40;;;;;;;;;;5010181;28;20030;-65
2023/12/14 08:43:02;;;;;;;25.45;12.20;;;;;;;;;;5019917;28;20036;-68
2023/12/14 08:45:28;;;;;;;26.42;12.73;;;;;;;;;;5029711;28;20025;-66
2023/12/14 08:47:53;;;;;;;23.88;12.30;;;;;;;;;;5030889;28;20093;-64
2023/12/14 08:50:19;;;;;;;26.45;12.40;;;;;;;;;;5026563;28;20038;-70
2023/12/14 08:52:44;;;;;;;29.13;12.85;;;;;;;;;;5016159;28;20471;-68
2023/12/14 08:55:10;;;;;;;29.63;13.70;;;;;;;;;;5016456;28;20034;-65
2023/12/14 08:57:35;;;;;;;30.35;13.50;;;;;;;;;;5014562;28;20487;-65
2023/12/14 09:00:04;;;;;;;26.38;12.98;;;;;;;;;;5030616;28;20128;-65
2023/12/14 09:02:30;;;;;;;31.38;13.63;;;;;;;;;;5030579;28;20032;-67
2023/12/14 09:04:55;;;;;;;30.35;13.25;;;;;;;;;;5031742;28;20045;-63
2023/12/14 09:07:20;;;;;;;28.55;13.55;;;;;;;;;;5028442;28;20144;-63
2023/12/14 09:09:46;;;;;;;29.23;13.38;;;;;;;;;;5033421;28;20025;-65
2023/12/14 09:12:12;;;;;;;36.40;14.77;;;;;;;;;;5034468;28;20379;-66
2023/12/14 09:14:37;;;;;;;30.92;14.48;;;;;;;;;;5033703;28;20249;-69
2023/12/14 09:17:03;;;;;;;30.65;14.35;;;;;;;;;;5034737;28;20460;-68
2023/12/14 09:19:30;;;;;;;30.90;14.13;;;;;;;;;;5033017;28;20039;-65
2023/12/14 09:21:55;;;;;;;34.35;14.70;;;;;;;;;;5028263;28;20034;-64
2023/12/14 09:24:21;;;;;;;30.20;13.80;;;;;;;;;;5033906;28;20120;-69
2023/12/14 09:26:46;;;;;;;31.92;13.98;;;;;;;;;;5033068;28;20087;-67
2023/12/14 09:29:11;;;;;;;30.88;13.63;;;;;;;;;;5034079;28;20059;-66
2023/12/14 09:31:40;;;;;;;31.25;13.85;;;;;;;;;;5032721;28;20034;-63
2023/12/14 09:34:05;;;;;;;32.80;14.25;;;;;;;;;;5030846;28;20491;-67
2023/12/14 09:36:31;;;;;;;34.30;14.75;;;;;;;;;;5025972;28;20074;-65
2023/12/14 09:38:56;;;;;;;32.28;13.55;;;;;;;;;;5027552;28;20037;-64
2023/12/14 09:41:21;;;;;;;32.08;13.63;;;;;;;;;;5033343;28;20500;-66
2023/12/14 09:43:47;;;;;;;30.88;13.73;;;;;;;;;;5032834;28;20037;-64
2023/12/14 09:46:13;;;;;;;32.20;13.88;;;;;;;;;;5033654;28;20026;-63
2023/12/14 09:48:39;;;;;;;30.58;13.68;;;;;;;;;;5032503;28;20464;-63
2023/12/14 09:51:06;;;;;;;31.63;13.73;;;;;;;;;;5028122;28;20033;-66
2023/12/14 09:53:31;;;;;;;25.08;11.10;;;;;;;;;;5020473;28;20025;-65
2023/12/14 09:55:56;;;;;;;28.13;12.77;;;;;;;;;;5033442;28;20412;-67
2023/12/14 09:58:22;;;;;;;29.05;13.02;;;;;;;;;;5032344;28;20115;-66
2023/12/14 10:00:47;;;;;;;31.55;12.65;;;;;;;;;;5026516;28;20072;-66
2023/12/14 10:03:22;;;;;;;32.00;11.88;;;;;;;;;;5019448;28;20452;-68
2023/12/14 10:05:48;;;;;;;27.00;11.50;;;;;;;;;;5027296;28;20109;-64
2023/12/14 10:08:16;;;;;;;24.15;10.75;;;;;;;;;;5019519;28;20022;-65
2023/12/14 10:10:42;;;;;;;26.40;11.10;;;;;;;;;;5032551;28;20103;-68
2023/12/14 10:13:07;;;;;;;29.58;11.80;;;;;;;;;;5033097;28;20033;-65
2023/12/14 10:15:46;;;;;;;26.05;11.18;;;;;;;;;;5032136;28;20033;-67
2023/12/14 10:18:21;;;;;;;24.10;10.73;;;;;;;;;;5033128;28;20029;-66
2023/12/14 10:20:46;;;;;;;24.85;10.40;;;;;;;;;;5022199;28;20100;-67
2023/12/14 10:23:12;;;;;;;23.33;10.77;;;;;;;;;;5017516;28;20034;-66
2023/12/14 10:25:38;;;;;;;22.90;10.70;;;;;;;;;;5031855;28;20032;-66
2023/12/14 10:28:03;;;;;;;24.70;10.48;;;;;;;;;;5021159;28;20041;-67
2023/12/14 10:30:30;;;;;;;24.27;10.38;;;;;;;;;;5032109;28;20044;-63
2023/12/14 10:32:55;;;;;;;23.67;10.20;;;;;;;;;;5031300;28;20029;-65
2023/12/14 10:35:22;;;;;;;24.40;11.10;;;;;;;;;;5031605;28;20045;-65
2023/12/14 10:37:50;;;;;;;22.95;10.57;;;;;;;;;;5020027;28;20098;-66
2023/12/14 10:40:16;;;;;;;27.52;11.25;;;;;;;;;;5032665;28;20033;-64
2023/12/14 10:42:44;;;;;;;23.92;10.15;;;;;;;;;;5029406;28;20034;-64
2023/12/14 10:45:16;;;;;;;22.35;9.52;;;;;;;;;;5032238;28;20053;-66
2023/12/14 10:47:43;;;;;;;20.85;9.27;;;;;;;;;;5031810;28;20735;-67
2023/12/14 10:50:11;;;;;;;21.42;9.77;;;;;;;;;;5018450;28;20030;-66
2023/12/14 10:52:39;;;;;;;24.45;10.55;;;;;;;;;;5030482;28;20029;-65
2023/12/14 10:55:11;;;;;;;24.60;10.30;;;;;;;;;;5025501;28;20030;-67
2023/12/14 10:57:36;;;;;;;22.45;9.68;;;;;;;;;;5012138;28;20038;-65
2023/12/14 11:00:08;;;;;;;25.60;10.52;;;;;;;;;;5029839;28;20037;-64
2023/12/14 11:02:42;;;;;;;24.42;10.65;;;;;;;;;;5030853;28;20399;-65
2023/12/14 11:05:19;;;;;;;21.80;10.63;;;;;;;;;;5027664;28;20167;-64
2023/12/14 11:07:50;;;;;;;24.35;10.50;;;;;;;;;;5011732;28;20034;-66
2023/12/14 11:10:22;;;;;;;24.83;12.30;;;;;;;;;;5023242;28;20034;-65
2023/12/14 11:12:52;;;;;;;24.08;11.35;;;;;;;;;;5023635;28;20021;-66
2023/12/14 11:15:22;;;;;;;23.75;11.15;;;;;;;;;;5031825;28;20200;-64
2023/12/14 11:18:10;;;;;;;26.35;11.80;;;;;;;;;;5029001;28;20120;-65
2023/12/14 11:20:44;;;;;;;24.25;11.38;;;;;;;;;;5024953;28;20053;-66
2023/12/14 11:23:13;;;;;;;26.05;11.45;;;;;;;;;;5018398;28;20041;-66
2023/12/14 11:25:40;;;;;;;28.38;11.90;;;;;;;;;;5029705;28;20033;-66
2023/12/14 11:28:08;;;;;;;25.65;12.10;;;;;;;;;;5031609;28;20108;-67
2023/12/14 11:30:35;;;;;;;30.98;11.95;;;;;;;;;;5030907;28;20034;-64
2023/12/14 11:33:00;;;;;;;29.00;12.30;;;;;;;;;;5021450;28;20484;-67
2023/12/14 11:35:26;;;;;;;27.67;11.77;;;;;;;;;;5031129;28;20033;-65
2023/12/14 11:37:52;;;;;;;29.95;11.95;;;;;;;;;;5030778;28;20567;-66
2023/12/14 11:40:22;;;;;;;29.98;12.00;;;;;;;;;;5022656;28;20073;-66
2023/12/14 11:43:00;;;;;;;29.33;11.73;;;;;;;;;;5025357;28;20033;-67
2023/12/14 11:45:26;;;;;;;27.98;11.18;;;;;;;;;;5030790;28;20419;-66
2023/12/14 11:47:52;;;;;;;30.27;11.38;;;;;;;;;;5030501;28;20492;-67
2023/12/14 11:50:18;;;;;;;26.48;10.98;;;;;;;;;;5030977;28;20037;-64
2023/12/14 11:52:46;;;;;;;24.92;10.73;;;;;;;;;;5030810;28;20029;-66
2023/12/14 11:55:11;;;;;;;25.73;11.00;;;;;;;;;;5029422;28;20415;-65
2023/12/14 11:57:37;;;;;;;27.08;11.13;;;;;;;;;;5029098;28;20056;-66
2023/12/14 12:00:06;;;;;;;24.45;11.23;;;;;;;;;;5022964;28;20034;-67
2023/12/14 12:02:32;;;;;;;32.70;11.05;;;;;;;;;;5027439;28;20107;-62
2023/12/14 12:05:03;;;;;;;23.90;10.15;;;;;;;;;;5030401;28;20037;-68
2023/12/14 12:07:30;;;;;;;24.75;10.25;;;;;;;;;;5026425;28;20124;-65
2023/12/14 12:09:55;;;;;;;24.02;10.55;;;;;;;;;;5030185;28;20449;-66
2023/12/14 12:12:21;;;;;;;26.45;10.77;;;;;;;;;;5031192;28;20079;-65
2023/12/14 12:14:48;;;;;;;24.58;10.10;;;;;;;;;;5030178;28;20030;-64
2023/12/14 12:17:15;;;;;;;25.42;10.82;;;;;;;;;;5020913;28;20030;-66
2023/12/14 12:19:42;;;;;;;22.25;9.77;;;;;;;;;;5018573;28;20054;-64
2023/12/14 12:22:08;;;;;;;24.05;10.32;;;;;;;;;;5030092;28;20480;-64
2023/12/14 12:24:34;;;;;;;21.60;10.73;;;;;;;;;;5028999;28;20040;-62
2023/12/14 12:26:59;;;;;;;22.15;9.98;;;;;;;;;;5013425;28;20042;-65
2023/12/14 12:29:25;;;;;;;25.02;10.85;;;;;;;;;;5018686;28;20392;-66
2023/12/14 12:31:51;;;;;;;23.40;10.75;;;;;;;;;;5024975;28;20100;-65
2023/12/14 12:34:17;;;;;;;25.40;10.23;;;;;;;;;;5017594;28;20108;-65
2023/12/14 12:36:42;;;;;;;20.38;9.93;;;;;;;;;;5031479;28;20491;-64
2023/12/14 12:39:08;;;;;;;20.63;10.07;;;;;;;;;;5034967;28;20048;-66
2023/12/14 12:41:37;;;;;;;23.45;9.65;;;;;;;;;;5030404;28;20025;-61
2023/12/14 12:44:05;;;;;;;21.50;10.18;;;;;;;;;;5016740;28;20045;-66
2023/12/14 12:46:38;;;;;;;20.83;10.30;;;;;;;;;;5028621;28;20392;-68
2023/12/14 12:49:04;;;;;;;21.73;10.45;;;;;;;;;;5034717;28;20052;-67
2023/12/14 12:51:31;;;;;;;20.73;10.27;;;;;;;;;;5035090;28;20033;-70
2023/12/14 12:53:59;;;;;;;20.65;10.02;;;;;;;;;;5033750;28;20206;-67
2023/12/14 12:56:27;;;;;;;21.08;10.35;;;;;;;;;;5031505;28;20040;-68
2023/12/14 12:58:53;;;;;;;21.98;10.98;;;;;;;;;;5015415;28;20484;-67
2023/12/14 13:01:22;;;;;;;21.88;10.40;;;;;;;;;;5021086;28;20056;-66
2023/12/14 13:03:53;;;;;;;21.23;10.45;;;;;;;;;;5014294;28;20026;-66
2023/12/14 13:06:22;;;;;;;22.83;10.23;;;;;;;;;;5029788;28;20069;-68
2023/12/14 13:08:47;;;;;;;26.00;11.02;;;;;;;;;;5032596;28;20045;-65
2023/12/14 13:11:12;;;;;;;27.70;11.38;;;;;;;;;;5017621;28;20080;-66
2023/12/14 13:13:40;;;;;;;22.92;10.73;;;;;;;;;;5013803;28;20026;-66
2023/12/14 13:16:05;;;;;;;21.05;9.77;;;;;;;;;;5032901;28;20037;-64
2023/12/14 13:18:30;;;;;;;25.35;12.48;;;;;;;;;;5034602;28;20036;-66
2023/12/14 13:20:57;;;;;;;21.45;10.98;;;;;;;;;;5032586;28;20067;-66
2023/12/14 13:23:23;;;;;;;22.55;10.55;;;;;;;;;;5032598;28;20077;-66
2023/12/14 13:25:48;;;;;;;22.30;10.30;;;;;;;;;;5022407;28;20138;-72
2023/12/14 13:28:14;;;;;;;24.73;11.13;;;;;;;;;;5014518;28;20045;-66
2023/12/14 13:30:40;;;;;;;22.73;10.63;;;;;;;;;;5028236;28;20049;-64
2023/12/14 13:33:06;;;;;;;23.40;11.27;;;;;;;;;;5031835;28;20035;-64
2023/12/14 13:35:32;;;;;;;27.30;12.27;;;;;;;;;;5022109;28;20096;-66
2023/12/14 13:37:57;;;;;;;25.20;11.68;;;;;;;;;;5013846;28;20029;-65
2023/12/14 13:40:22;;;;;;;24.77;11.93;;;;;;;;;;5024682;28;20450;-65
2023/12/14 13:42:48;;;;;;;25.55;11.95;;;;;;;;;;5032247;28;20026;-67
2023/12/14 13:45:13;;;;;;;28.02;12.00;;;;;;;;;;5033446;28;20104;-65
2023/12/14 13:47:39;;;;;;;28.20;12.68;;;;;;;;;;5029470;28;20124;-67
2023/12/14 13:50:05;;;;;;;27.52;12.30;;;;;;;;;;5022748;28;20033;-67
2023/12/14 13:52:30;;;;;;;27.88;12.80;;;;;;;;;;5032637;28;20033;-66
2023/12/14 13:54:56;;;;;;;29.08;12.85;;;;;;;;;;5032834;28;20055;-66
2023/12/14 13:57:22;;;;;;;28.42;13.45;;;;;;;;;;5028482;28;20395;-68
2023/12/14 13:59:47;;;;;;;27.88;13.23;;;;;;;;;;5030771;28;20025;-64
2023/12/14 14:02:13;;;;;;;26.20;12.30;;;;;;;;;;5026831;28;20041;-66
2023/12/14 14:04:38;;;;;;;27.02;12.40;;;;;;;;;;5016798;28;20056;-64
2023/12/14 14:07:04;;;;;;;25.50;12.38;;;;;;;;;;5033073;28;20124;-66
2023/12/14 14:09:29;;;;;;;29.05;12.73;;;;;;;;;;5025428;28;20443;-65
2023/12/14 14:11:55;;;;;;;26.90;12.18;;;;;;;;;;5031926;28;20029;-65